Time;durP1;ratioP1;P1;durP2;ratioP2;P2;SDS_P1;SDS_P2;PMS_P1;PMS_P2;Temp;Humidity;BMP_temperature;BMP_pressure;BME280_temperature;BME280_humidity;BME280_pressure;Samples;Min_cycle;Max_cycle;Signal;HPM_P1;HPM_P2
2022/12/01 00:01:00;;;;;;;82.97;33.50;;;6.30;99.90;;;;;;4975419;28;20035;-68
2022/12/01 00:03:26;;;;;;;77.05;31.27;;;;;;;;;;4973933;28;20055;-68
2022/12/01 00:06:06;;;;;;;78.55;32.33;;;6.50;99.90;;;;;;4973889;28;20054;-67
2022/12/01 00:08:32;;;;;;;81.63;33.92;;;6.20;99.90;;;;;;4974425;28;20047;-68
2022/12/01 00:11:09;;;;;;;78.60;34.38;;;;;;;;;;4973792;28;20042;-68
2022/12/01 00:13:35;;;;;;;77.13;33.08;;;6.20;99.90;;;;;;4975065;28;20053;-67
2022/12/01 00:16:20;;;;;;;79.00;32.88;;;6.20;99.90;;;;;;4973822;28;20038;-67
2022/12/01 00:18:50;;;;;;;83.32;32.70;;;6.20;99.90;;;;;;4973430;28;20035;-68
2022/12/01 00:21:21;;;;;;;76.53;32.55;;;6.20;99.90;;;;;;4975112;28;20524;-68
2022/12/01 00:23:49;;;;;;;82.22;34.33;;;6.10;99.90;;;;;;4974982;28;20043;-68
2022/12/01 00:26:16;;;;;;;75.28;32.72;;;6.30;99.90;;;;;;4975107;28;20054;-68
2022/12/01 00:28:42;;;;;;;83.53;34.05;;;;;;;;;;4974631;28;20050;-67
2022/12/01 00:31:11;;;;;;;80.80;32.63;;;6.20;99.90;;;;;;4973536;28;20481;-68
2022/12/01 00:33:38;;;;;;;73.22;32.67;;;6.20;99.90;;;;;;4975034;28;20460;-68
2022/12/01 00:36:04;;;;;;;77.40;33.33;;;6.20;99.90;;;;;;4974709;28;20045;-68
2022/12/01 00:38:30;;;;;;;72.65;32.58;;;6.20;99.90;;;;;;4973791;28;20402;-68
2022/12/01 00:40:56;;;;;;;77.32;32.22;;;5.90;99.90;;;;;;4973622;28;20082;-68
2022/12/01 00:43:23;;;;;;;78.32;33.30;;;6.30;99.90;;;;;;4973297;28;20453;-66
2022/12/01 00:45:48;;;;;;;76.40;33.35;;;6.40;99.90;;;;;;4974682;28;20039;-68
2022/12/01 00:48:14;;;;;;;79.45;33.15;;;6.00;99.90;;;;;;4974779;28;20045;-68
2022/12/01 00:50:40;;;;;;;83.70;32.92;;;6.20;99.90;;;;;;4973213;28;20047;-68
2022/12/01 00:53:05;;;;;;;81.55;33.05;;;6.20;99.90;;;;;;4974575;28;20401;-68
2022/12/01 00:55:31;;;;;;;75.78;32.85;;;;;;;;;;4974530;28;20089;-68
2022/12/01 00:57:57;;;;;;;75.82;33.67;;;6.00;99.90;;;;;;4960921;28;20042;-67
2022/12/01 01:00:23;;;;;;;77.95;32.85;;;6.10;99.90;;;;;;4974699;28;20047;-67
2022/12/01 01:02:48;;;;;;;73.45;32.40;;;6.20;99.90;;;;;;4973105;28;20409;-68
2022/12/01 01:05:14;;;;;;;77.60;32.60;;;6.00;99.90;;;;;;4974416;28;20413;-68
2022/12/01 01:07:39;;;;;;;76.50;33.95;;;6.20;99.90;;;;;;4973034;28;20104;-67
2022/12/01 01:10:06;;;;;;;79.85;32.80;;;6.20;99.90;;;;;;4974257;28;20031;-68
2022/12/01 01:12:31;;;;;;;79.13;32.90;;;;;;;;;;4973154;28;20401;-67
2022/12/01 01:14:57;;;;;;;76.38;32.35;;;;;;;;;;4974499;28;20039;-67
2022/12/01 01:17:23;;;;;;;78.13;32.75;;;6.10;99.90;;;;;;4973336;28;20054;-67
2022/12/01 01:19:51;;;;;;;74.72;32.38;;;6.20;99.90;;;;;;4972580;28;20035;-67
2022/12/01 01:22:16;;;;;;;77.75;31.77;;;6.00;99.90;;;;;;4972651;28;20149;-68
2022/12/01 01:24:42;;;;;;;75.03;31.70;;;6.10;99.90;;;;;;4974109;28;20047;-67
2022/12/01 01:27:07;;;;;;;75.60;32.20;;;6.20;99.90;;;;;;4972750;28;20101;-67
2022/12/01 01:29:33;;;;;;;75.30;32.47;;;6.20;99.90;;;;;;4973958;28;20043;-67
2022/12/01 01:31:58;;;;;;;75.68;31.70;;;6.20;99.90;;;;;;4974181;28;20031;-68
2022/12/01 01:34:24;;;;;;;73.55;32.30;;;6.20;99.90;;;;;;4972848;28;20090;-68
2022/12/01 01:36:49;;;;;;;73.03;31.83;;;6.30;99.90;;;;;;4972808;28;20038;-67
2022/12/01 01:39:15;;;;;;;77.72;33.10;;;6.30;99.90;;;;;;4972826;28;20109;-68
2022/12/01 01:41:41;;;;;;;68.30;30.15;;;;;;;;;;4973921;28;20043;-67
2022/12/01 01:44:44;;;;;;;62.22;28.73;;;6.20;99.90;;;;;;4974036;28;20078;-68
2022/12/01 01:47:10;;;;;;;68.97;31.75;;;6.10;99.90;;;;;;4972759;28;20050;-68
2022/12/01 01:49:36;;;;;;;75.18;30.52;;;6.10;99.90;;;;;;4972767;28;20050;-68
2022/12/01 01:52:03;;;;;;;68.10;30.17;;;6.10;99.90;;;;;;4972482;28;20382;-67
2022/12/01 01:54:43;;;;;;;73.63;30.65;;;6.10;99.90;;;;;;4972513;28;20046;-67
2022/12/01 01:57:12;;;;;;;67.95;29.38;;;6.10;99.90;;;;;;4974185;28;20067;-68
2022/12/01 01:59:43;;;;;;;73.95;31.98;;;6.00;99.90;;;;;;4973901;28;20038;-68
2022/12/01 02:02:10;;;;;;;67.55;29.33;;;6.00;99.90;;;;;;4972653;28;20097;-67
2022/12/01 02:04:43;;;;;;;74.20;30.10;;;6.00;99.90;;;;;;4973731;28;20101;-67
2022/12/01 02:07:11;;;;;;;71.10;31.45;;;6.10;99.90;;;;;;4973956;28;20043;-68
2022/12/01 02:09:37;;;;;;;71.82;31.75;;;6.00;99.90;;;;;;4973884;28;20038;-67
2022/12/01 02:12:26;;;;;;;78.18;34.10;;;6.10;99.90;;;;;;4971002;28;20452;-67
2022/12/01 02:15:05;;;;;;;64.82;28.20;;;6.10;99.90;;;;;;4966745;28;20098;-68
2022/12/01 02:17:43;;;;;;;76.35;30.73;;;;;;;;;;4970217;28;20089;-67
2022/12/01 02:20:42;;;;;;;76.00;31.58;;;6.10;99.90;;;;;;4959317;28;20082;-68
2022/12/01 02:23:18;;;;;;;79.90;32.17;;;;;;;;;;4959697;28;20055;-68
2022/12/01 02:26:28;;;;;;;73.35;32.58;;;6.00;99.90;;;;;;4970807;28;20481;-67
2022/12/01 02:29:25;;;;;;;75.22;31.58;;;6.00;99.90;;;;;;4930000;28;20556;-67
2022/12/01 02:32:06;;;;;;;74.47;32.03;;;6.10;99.90;;;;;;4973758;28;20039;-67
2022/12/01 02:34:43;;;;;;;72.85;31.83;;;6.00;99.90;;;;;;4975936;28;20493;-68
2022/12/01 02:37:30;;;;;;;73.07;32.50;;;6.10;99.90;;;;;;4977392;28;20046;-68
2022/12/01 02:40:21;;;;;;;68.50;31.75;;;6.20;99.90;;;;;;4961190;28;20031;-67
2022/12/01 02:43:05;;;;;;;78.40;33.72;;;6.10;99.90;;;;;;4974549;28;20066;-68
2022/12/01 02:45:46;;;;;;;74.55;31.15;;;;;;;;;;4976014;28;20043;-67
2022/12/01 02:48:19;;;;;;;76.07;32.10;;;6.00;99.90;;;;;;4975581;28;20374;-68
2022/12/01 02:50:45;;;;;;;75.47;31.45;;;6.00;99.90;;;;;;4975478;28;20080;-67
2022/12/01 02:53:15;;;;;;;82.28;35.13;;;5.90;99.90;;;;;;4975533;28;20039;-67
2022/12/01 02:55:52;;;;;;;81.90;36.50;;;6.10;99.90;;;;;;4976900;28;20039;-68
2022/12/01 02:58:18;;;;;;;80.90;35.60;;;6.10;99.90;;;;;;4976869;28;20031;-68
2022/12/01 03:00:57;;;;;;;86.13;34.72;;;6.30;99.90;;;;;;4976831;28;20043;-68
2022/12/01 03:03:46;;;;;;;74.32;32.38;;;6.10;99.90;;;;;;4975518;28;20049;-67
2022/12/01 03:06:19;;;;;;;78.82;33.58;;;6.10;99.90;;;;;;4975696;28;20078;-68
2022/12/01 03:09:08;;;;;;;82.45;34.70;;;;;;;;;;4960705;28;20055;-68
2022/12/01 03:11:49;;;;;;;75.88;33.38;;;6.20;99.90;;;;;;4972356;28;20540;-68
2022/12/01 03:14:33;;;;;;;87.05;35.17;;;5.90;99.90;;;;;;4975226;28;20050;-67
2022/12/01 03:17:04;;;;;;;77.78;33.80;;;5.80;99.90;;;;;;4976505;28;20061;-68
2022/12/01 03:19:42;;;;;;;79.90;35.53;;;6.20;99.90;;;;;;4974927;28;20054;-68
2022/12/01 03:22:30;;;;;;;85.70;34.85;;;5.90;99.90;;;;;;4974833;28;20058;-67
2022/12/01 03:24:59;;;;;;;77.55;33.92;;;6.00;99.90;;;;;;4976519;28;20043;-67
2022/12/01 03:27:29;;;;;;;82.43;35.50;;;5.90;99.90;;;;;;4974975;28;20047;-68
2022/12/01 03:29:57;;;;;;;79.97;34.13;;;5.90;99.90;;;;;;4977005;28;20401;-68
2022/12/01 03:32:32;;;;;;;74.30;32.60;;;5.80;99.90;;;;;;4975951;28;20393;-67
2022/12/01 03:35:20;;;;;;;81.53;35.80;;;5.90;99.90;;;;;;4975039;28;20065;-67
2022/12/01 03:37:54;;;;;;;78.28;35.65;;;5.90;99.90;;;;;;4958741;28;20043;-68
2022/12/01 03:40:24;;;;;;;75.80;34.07;;;;;;;;;;4970049;28;20485;-68
2022/12/01 03:42:56;;;;;;;71.45;32.72;;;5.90;99.90;;;;;;4958443;28;20058;-67
2022/12/01 03:45:51;;;;;;;74.90;32.33;;;5.90;99.90;;;;;;4964637;28;20050;-68
2022/12/01 03:48:17;;;;;;;72.70;31.77;;;;;;;;;;4943328;28;20058;-68
2022/12/01 03:50:50;;;;;;;77.80;33.45;;;5.80;99.90;;;;;;4975835;28;20046;-68
2022/12/01 03:53:22;;;;;;;84.18;34.17;;;;;;;;;;4974427;28;20042;-68
2022/12/01 03:55:54;;;;;;;77.00;31.60;;;5.80;99.90;;;;;;4974224;28;20493;-68
2022/12/01 03:58:31;;;;;;;80.18;32.40;;;5.70;99.90;;;;;;4974823;28;20042;-68
2022/12/01 04:00:58;;;;;;;86.07;33.83;;;5.70;99.90;;;;;;4974493;28;20051;-67
2022/12/01 04:03:25;;;;;;;83.53;34.50;;;5.70;99.90;;;;;;4974206;28;20110;-67
2022/12/01 04:05:51;;;;;;;79.75;34.08;;;5.70;99.90;;;;;;4974681;28;20047;-68
2022/12/01 04:08:17;;;;;;;73.53;32.45;;;;;;;;;;4974158;28;20089;-67
2022/12/01 04:10:42;;;;;;;75.03;32.67;;;5.50;99.90;;;;;;4974155;28;20102;-68
2022/12/01 04:13:15;;;;;;;73.70;33.63;;;5.60;99.90;;;;;;4975473;28;20030;-68
2022/12/01 04:15:41;;;;;;;80.45;32.20;;;5.50;99.90;;;;;;4975340;28;20034;-68
2022/12/01 04:18:07;;;;;;;81.45;35.10;;;5.40;99.90;;;;;;4974297;28;20137;-69
2022/12/01 04:20:32;;;;;;;77.65;34.38;;;5.30;99.90;;;;;;4977400;28;20125;-67
2022/12/01 04:22:58;;;;;;;73.80;33.03;;;5.50;99.90;;;;;;4977377;28;20046;-68
2022/12/01 04:25:23;;;;;;;87.43;36.58;;;5.40;99.90;;;;;;4976995;28;20050;-68
2022/12/01 04:27:49;;;;;;;76.07;33.22;;;5.40;99.90;;;;;;4977463;28;20042;-67
2022/12/01 04:30:14;;;;;;;70.40;30.70;;;5.40;99.90;;;;;;4977131;28;20133;-67
2022/12/01 04:32:42;;;;;;;71.85;31.65;;;5.50;99.90;;;;;;4994370;28;20070;-67
2022/12/01 04:35:10;;;;;;;74.70;31.80;;;5.50;99.90;;;;;;4994339;28;20118;-67
2022/12/01 04:37:37;;;;;;;68.82;32.17;;;5.50;99.90;;;;;;4976767;28;20408;-67
2022/12/01 04:40:04;;;;;;;78.60;34.33;;;5.60;99.90;;;;;;4994303;28;20031;-67
2022/12/01 04:42:30;;;;;;;81.55;33.95;;;5.60;99.90;;;;;;4976735;28;20053;-67
2022/12/01 04:44:56;;;;;;;66.38;31.10;;;;;;;;;;4994342;28;20026;-67
2022/12/01 04:47:21;;;;;;;79.70;34.17;;;5.50;99.90;;;;;;4976439;28;20141;-67
2022/12/01 04:49:48;;;;;;;75.82;33.38;;;5.60;99.90;;;;;;4994301;28;20170;-67
2022/12/01 04:52:13;;;;;;;71.05;31.70;;;5.60;99.90;;;;;;4976772;28;20049;-67
2022/12/01 04:54:39;;;;;;;81.95;32.33;;;5.50;99.90;;;;;;4993993;28;20031;-68
2022/12/01 04:57:04;;;;;;;66.75;28.63;;;5.60;99.90;;;;;;4993985;28;20452;-68
2022/12/01 04:59:30;;;;;;;72.10;32.38;;;5.60;99.90;;;;;;4993008;28;20452;-67
2022/12/01 05:01:55;;;;;;;74.30;31.85;;;5.60;99.90;;;;;;4976553;28;20073;-67
2022/12/01 05:04:21;;;;;;;71.70;33.10;;;;;;;;;;4993801;28;20096;-67
2022/12/01 05:06:47;;;;;;;74.65;34.05;;;5.60;99.90;;;;;;4993585;28;20042;-67
2022/12/01 05:09:14;;;;;;;72.07;30.95;;;5.70;99.90;;;;;;4976301;28;20417;-68
2022/12/01 05:11:40;;;;;;;74.72;33.47;;;5.70;99.90;;;;;;4993605;28;20038;-68
2022/12/01 05:14:07;;;;;;;73.00;31.95;;;;;;;;;;4976156;28;20536;-67
2022/12/01 05:16:33;;;;;;;76.00;31.52;;;5.70;99.90;;;;;;4976284;28;20530;-67
2022/12/01 05:21:47;;;;;;;74.60;32.30;;;5.70;99.90;;;;;;4975915;28;20081;-67
2022/12/01 05:24:14;;;;;;;63.53;28.40;;;5.70;99.90;;;;;;4976504;28;20520;-67
2022/12/01 05:26:41;;;;;;;67.55;31.75;;;5.70;99.90;;;;;;4993693;28;20082;-67
2022/12/01 05:29:07;;;;;;;82.63;34.00;;;5.80;99.90;;;;;;4993665;28;20049;-68
2022/12/01 05:31:33;;;;;;;76.85;33.83;;;5.60;99.90;;;;;;4992974;28;20096;-67
2022/12/01 05:33:59;;;;;;;74.85;33.58;;;5.70;99.90;;;;;;4976132;28;20046;-67
2022/12/01 05:36:25;;;;;;;79.07;32.28;;;5.70;99.90;;;;;;4993631;28;20051;-67
2022/12/01 05:38:51;;;;;;;84.75;35.13;;;5.70;99.90;;;;;;4993508;28;20038;-67
2022/12/01 05:41:17;;;;;;;78.40;32.90;;;;;;;;;;4993370;28;20123;-67
2022/12/01 05:43:42;;;;;;;84.22;36.15;;;5.90;99.90;;;;;;4976183;28;20042;-67
2022/12/01 05:46:08;;;;;;;78.32;35.67;;;5.80;99.90;;;;;;4975914;28;20046;-68
2022/12/01 05:48:34;;;;;;;85.95;35.67;;;5.80;99.90;;;;;;4976219;28;20046;-67
2022/12/01 05:51:07;;;;;;;82.38;35.60;;;5.70;99.90;;;;;;4993205;28;20493;-68
2022/12/01 05:53:32;;;;;;;88.85;36.92;;;5.80;99.90;;;;;;4975989;28;20118;-68
2022/12/01 05:55:58;;;;;;;91.47;38.20;;;5.70;99.90;;;;;;4993235;28;20165;-67
2022/12/01 05:58:23;;;;;;;85.65;35.83;;;5.80;99.90;;;;;;4993367;28;20078;-67
2022/12/01 06:00:49;;;;;;;87.20;36.40;;;5.70;99.90;;;;;;4992799;28;20133;-67
2022/12/01 06:03:14;;;;;;;89.85;36.03;;;5.60;99.90;;;;;;4975706;28;20097;-67
2022/12/01 06:05:40;;;;;;;89.70;36.53;;;5.80;99.90;;;;;;4976031;28;20057;-67
2022/12/01 06:08:06;;;;;;;77.20;35.28;;;5.70;99.90;;;;;;4978022;28;20042;-67
2022/12/01 06:10:31;;;;;;;88.05;38.50;;;5.70;99.90;;;;;;4996883;28;20070;-68
2022/12/01 06:12:57;;;;;;;103.93;39.78;;;;;;;;;;4997000;28;20141;-67
2022/12/01 06:15:23;;;;;;;86.22;36.60;;;5.70;99.90;;;;;;4979697;28;20392;-67
2022/12/01 06:17:49;;;;;;;82.25;37.53;;;5.70;99.90;;;;;;4996763;28;20125;-67
2022/12/01 06:20:14;;;;;;;88.35;38.22;;;5.70;99.90;;;;;;4996623;28;20121;-67
2022/12/01 06:22:40;;;;;;;82.45;35.25;;;5.70;99.90;;;;;;4979495;28;20129;-68
2022/12/01 06:25:06;;;;;;;88.22;35.67;;;5.70;99.90;;;;;;4979004;28;20045;-67
2022/12/01 06:27:31;;;;;;;86.55;35.40;;;5.90;99.90;;;;;;4963274;28;20065;-67
2022/12/01 06:29:57;;;;;;;90.03;36.35;;;5.70;99.90;;;;;;4996611;28;20140;-68
2022/12/01 06:32:23;;;;;;;82.70;35.90;;;;;;;;;;4978893;28;20041;-66
2022/12/01 06:34:48;;;;;;;81.65;34.72;;;5.50;99.90;;;;;;4996880;28;20046;-68
2022/12/01 06:37:15;;;;;;;86.82;36.28;;;5.50;99.90;;;;;;4979150;28;20054;-67
2022/12/01 06:39:41;;;;;;;77.32;34.40;;;5.20;99.90;;;;;;4978948;28;20038;-67
2022/12/01 06:42:07;;;;;;;82.15;33.85;;;5.40;99.90;;;;;;4978903;28;20112;-68
2022/12/01 06:44:32;;;;;;;84.95;35.58;;;5.40;99.90;;;;;;4978977;28;20112;-68
2022/12/01 06:46:58;;;;;;;84.18;36.22;;;5.20;99.90;;;;;;4978826;28;20133;-67
2022/12/01 06:49:23;;;;;;;64.63;27.48;;;5.20;99.90;;;;;;4978774;28;20042;-67
2022/12/01 06:51:49;;;;;;;72.03;30.42;;;5.20;99.90;;;;;;4996444;28;20038;-67
2022/12/01 06:54:16;;;;;;;70.18;31.63;;;5.10;99.90;;;;;;4996012;28;20046;-67
2022/12/01 06:56:43;;;;;;;68.30;28.23;;;4.90;99.90;;;;;;4996211;28;20035;-67
2022/12/01 06:59:08;;;;;;;70.80;30.95;;;4.90;99.90;;;;;;4996302;28;20038;-67
2022/12/01 07:01:34;;;;;;;46.30;21.67;;;;;;;;;;4996130;28;20042;-66
2022/12/01 07:04:00;;;;;;;45.22;21.50;;;4.80;99.90;;;;;;4995961;28;20496;-67
2022/12/01 07:06:28;;;;;;;38.50;20.02;;;4.60;99.90;;;;;;4996096;28;20045;-67
2022/12/01 07:08:53;;;;;;;38.60;19.05;;;4.50;99.90;;;;;;4995761;28;20065;-67
2022/12/01 07:11:19;;;;;;;52.75;20.40;;;4.30;99.90;;;;;;4978370;28;20062;-67
2022/12/01 07:13:44;;;;;;;45.13;21.92;;;4.30;99.90;;;;;;4996108;28;20050;-67
2022/12/01 07:16:10;;;;;;;59.10;23.45;;;4.20;99.90;;;;;;4995807;28;20034;-67
2022/12/01 07:18:37;;;;;;;62.20;24.30;;;4.20;99.90;;;;;;4995714;28;20136;-68
2022/12/01 07:21:09;;;;;;;96.05;25.58;;;4.20;99.90;;;;;;4978354;28;20404;-68
2022/12/01 07:23:35;;;;;;;95.18;25.83;;;4.30;99.90;;;;;;4978238;28;20116;-67
2022/12/01 07:26:07;;;;;;;82.22;27.42;;;4.10;99.90;;;;;;4995909;28;20046;-67
2022/12/01 07:28:32;;;;;;;137.60;28.75;;;4.00;99.90;;;;;;4995499;28;20053;-67
2022/12/01 07:31:13;;;;;;;318.33;35.97;;;4.10;99.90;;;;;;4995542;28;20129;-67
2022/12/01 07:33:38;;;;;;;235.55;29.73;;;4.10;99.90;;;;;;4977749;28;20042;-67
2022/12/01 07:36:05;;;;;;;122.40;25.55;;;4.00;99.90;;;;;;4995411;28;20463;-67
2022/12/01 07:38:32;;;;;;;191.95;32.50;;;4.10;99.90;;;;;;4995381;28;20493;-67
2022/12/01 07:41:09;;;;;;;70.72;24.88;;;4.20;99.90;;;;;;4995132;28;20451;-68
2022/12/01 07:43:35;;;;;;;157.40;29.67;;;4.10;99.90;;;;;;4995312;28;20512;-67
2022/12/01 07:46:12;;;;;;;138.23;26.88;;;4.30;99.90;;;;;;4990462;28;20452;-67
2022/12/01 07:48:39;;;;;;;172.13;24.25;;;4.00;99.90;;;;;;4961836;28;20046;-66
2022/12/01 07:51:06;;;;;;;228.23;25.08;;;3.90;99.90;;;;;;4977381;28;20085;-66
2022/12/01 07:53:32;;;;;;;130.13;17.92;;;3.80;99.90;;;;;;4977819;28;20472;-66
2022/12/01 07:55:58;;;;;;;119.10;19.83;;;3.80;99.90;;;;;;4994756;28;20404;-66
2022/12/01 07:58:25;;;;;;;65.65;19.90;;;;;;;;;;4995180;28;20069;-66
2022/12/01 08:00:51;;;;;;;109.57;23.50;;;3.80;99.90;;;;;;4994587;28;20053;-68
2022/12/01 08:03:17;;;;;;;95.30;22.65;;;3.80;99.90;;;;;;4963599;28;20089;-68
2022/12/01 08:05:43;;;;;;;135.55;24.00;;;3.80;99.90;;;;;;4987468;28;20071;-66
2022/12/01 08:08:09;;;;;;;157.60;28.23;;;3.50;99.90;;;;;;4993557;28;20046;-68
2022/12/01 08:10:35;;;;;;;114.30;22.27;;;;;;;;;;4976297;28;20129;-66
2022/12/01 08:13:00;;;;;;;125.75;24.17;;;3.80;99.90;;;;;;4963628;28;20054;-68
2022/12/01 08:15:27;;;;;;;109.00;22.50;;;;;;;;;;4967924;28;20039;-67
2022/12/01 08:17:52;;;;;;;246.13;28.10;;;3.70;99.90;;;;;;4994125;28;20038;-67
2022/12/01 08:20:18;;;;;;;98.10;20.90;;;3.80;99.90;;;;;;4983342;28;20058;-67
2022/12/01 08:22:43;;;;;;;143.63;24.30;;;3.90;99.90;;;;;;4994798;28;20050;-67
2022/12/01 08:25:09;;;;;;;88.57;22.92;;;3.90;99.90;;;;;;4994252;28;20049;-67
2022/12/01 08:27:35;;;;;;;415.83;35.20;;;4.00;99.90;;;;;;4976842;28;20043;-67
2022/12/01 08:30:01;;;;;;;368.45;33.75;;;;;;;;;;4976705;28;20038;-66
2022/12/01 08:32:28;;;;;;;428.73;33.67;;;4.00;99.90;;;;;;4976663;28;20046;-66
2022/12/01 08:34:54;;;;;;;174.40;24.45;;;4.00;99.90;;;;;;4973695;28;20049;-67
2022/12/01 08:37:20;;;;;;;179.85;23.33;;;;;;;;;;4989677;28;20045;-68
2022/12/01 08:39:45;;;;;;;288.75;28.40;;;4.00;99.90;;;;;;4966566;28;20039;-68
2022/12/01 08:42:11;;;;;;;209.15;23.60;;;4.30;99.90;;;;;;4994041;28;20042;-66
2022/12/01 08:44:37;;;;;;;138.23;21.60;;;;;;;;;;4956306;28;20043;-66
2022/12/01 08:47:03;;;;;;;216.45;23.92;;;4.20;99.90;;;;;;4986528;28;20046;-66
2022/12/01 08:49:29;;;;;;;109.88;22.83;;;4.20;99.90;;;;;;4992511;28;20121;-66
2022/12/01 08:51:55;;;;;;;159.70;23.83;;;4.00;99.90;;;;;;4983388;28;20046;-66
2022/12/01 08:54:20;;;;;;;114.45;23.33;;;4.10;99.90;;;;;;4994037;28;20045;-66
2022/12/01 08:56:46;;;;;;;115.82;23.77;;;4.20;99.90;;;;;;4993567;28;20125;-66
2022/12/01 08:59:12;;;;;;;86.13;20.73;;;4.20;99.90;;;;;;4994060;28;20045;-66
2022/12/01 09:01:53;;;;;;;152.55;24.48;;;4.10;99.90;;;;;;4994021;28;20460;-66
2022/12/01 09:04:20;;;;;;;100.47;22.33;;;4.30;99.90;;;;;;4971890;28;20077;-66
2022/12/01 09:06:48;;;;;;;68.50;21.15;;;4.20;99.90;;;;;;4993569;28;20038;-66
2022/12/01 09:09:16;;;;;;;120.32;23.00;;;;;;;;;;4975741;28;20053;-66
2022/12/01 09:11:42;;;;;;;166.27;23.17;;;4.30;99.90;;;;;;4993499;28;20126;-66
2022/12/01 09:14:08;;;;;;;281.92;27.67;;;4.30;99.90;;;;;;4976424;28;20042;-66
2022/12/01 09:16:35;;;;;;;161.35;23.65;;;;;;;;;;4993394;28;20433;-67
2022/12/01 09:19:01;;;;;;;111.25;21.55;;;4.40;99.90;;;;;;4982484;28;20050;-67
2022/12/01 09:21:31;;;;;;;103.85;20.83;;;4.40;99.90;;;;;;4972617;28;20058;-66
2022/12/01 09:23:58;;;;;;;120.10;22.00;;;4.50;99.90;;;;;;4979670;28;20045;-66
2022/12/01 09:26:24;;;;;;;97.22;20.10;;;4.50;99.90;;;;;;4976138;28;20109;-66
2022/12/01 09:28:53;;;;;;;47.40;19.70;;;4.50;99.90;;;;;;4993294;28;20042;-66
2022/12/01 09:31:19;;;;;;;44.80;19.30;;;4.70;99.90;;;;;;4975930;28;20492;-66
2022/12/01 09:33:45;;;;;;;60.28;21.33;;;;;;;;;;4992594;28;20054;-66
2022/12/01 09:36:11;;;;;;;123.57;19.85;;;5.00;99.90;;;;;;4975319;28;20551;-67
2022/12/01 09:38:38;;;;;;;74.85;19.05;;;5.10;99.90;;;;;;4975734;28;20122;-66
2022/12/01 09:41:15;;;;;;;90.18;19.60;;;5.20;99.90;;;;;;4975594;28;20034;-67
2022/12/01 09:43:58;;;;;;;95.10;19.52;;;5.00;99.90;;;;;;4996961;28;20042;-67
2022/12/01 09:46:40;;;;;;;75.28;21.80;;;5.00;99.90;;;;;;4986159;28;20112;-66
2022/12/01 09:49:14;;;;;;;66.18;19.48;;;5.10;99.90;;;;;;4979661;28;20038;-67
2022/12/01 09:51:39;;;;;;;86.05;21.52;;;5.10;99.90;;;;;;4979916;28;20058;-67
2022/12/01 09:54:08;;;;;;;47.95;19.50;;;5.10;99.90;;;;;;4997275;28;20035;-66
2022/12/01 09:56:48;;;;;;;36.72;18.05;;;5.20;99.90;;;;;;4997348;28;20400;-67
2022/12/01 09:59:23;;;;;;;39.25;17.33;;;5.40;99.90;;;;;;4997123;28;20034;-66
2022/12/01 10:01:58;;;;;;;28.92;18.08;;;5.50;99.90;;;;;;4990161;28;20042;-66
2022/12/01 10:04:34;;;;;;;53.50;18.23;;;5.50;99.90;;;;;;4979164;28;20046;-66
2022/12/01 10:07:03;;;;;;;33.45;17.70;;;5.50;99.90;;;;;;4987006;28;20077;-67
2022/12/01 10:09:32;;;;;;;33.03;18.15;;;5.50;99.90;;;;;;4996957;28;20121;-66
2022/12/01 10:12:05;;;;;;;39.55;18.75;;;5.80;99.90;;;;;;4996669;28;20039;-66
2022/12/01 10:14:34;;;;;;;32.53;17.48;;;5.80;99.90;;;;;;4990769;28;20049;-67
2022/12/01 10:17:32;;;;;;;31.27;17.70;;;5.80;99.90;;;;;;4996807;28;20049;-67
2022/12/01 10:20:08;;;;;;;32.50;19.63;;;5.80;99.90;;;;;;4979006;28;20077;-67
2022/12/01 10:23:03;;;;;;;30.38;16.60;;;5.80;99.90;;;;;;4967221;28;20493;-66
2022/12/01 10:25:49;;;;;;;32.10;18.77;;;5.90;99.90;;;;;;4979277;28;20091;-67
2022/12/01 10:28:49;;;;;;;34.20;19.67;;;5.90;99.90;;;;;;4965919;28;20058;-66
2022/12/01 10:31:19;;;;;;;32.35;18.20;;;6.00;99.90;;;;;;4986081;28;20038;-67
2022/12/01 10:34:09;;;;;;;35.83;19.45;;;6.30;99.90;;;;;;4979226;28;20089;-67
2022/12/01 10:36:35;;;;;;;33.10;19.17;;;6.10;99.90;;;;;;4996672;28;20441;-67
2022/12/01 10:39:05;;;;;;;37.17;20.00;;;6.30;99.90;;;;;;4979214;28;20034;-66
2022/12/01 10:41:35;;;;;;;39.88;19.23;;;6.30;99.90;;;;;;4997213;28;20451;-66
2022/12/01 10:44:04;;;;;;;34.53;19.92;;;6.40;99.90;;;;;;4978898;28;20477;-66
2022/12/01 10:46:53;;;;;;;34.58;20.33;;;6.50;99.90;;;;;;4979186;28;20038;-67
2022/12/01 10:49:19;;;;;;;38.28;20.80;;;6.50;99.90;;;;;;4965251;28;20046;-67
2022/12/01 10:51:55;;;;;;;37.97;20.25;;;6.70;99.90;;;;;;4996045;28;20042;-66
2022/12/01 10:54:41;;;;;;;37.08;19.70;;;6.70;99.90;;;;;;4995799;28;20117;-67
2022/12/01 10:57:14;;;;;;;39.20;21.48;;;6.80;99.90;;;;;;4995079;28;20085;-66
2022/12/01 10:59:43;;;;;;;36.47;19.50;;;;;;;;;;4996207;28;20365;-67
2022/12/01 11:02:19;;;;;;;38.85;21.58;;;6.80;99.90;;;;;;4987211;28;20054;-66
2022/12/01 11:05:06;;;;;;;36.88;20.40;;;7.20;99.90;;;;;;4995929;28;20114;-67
2022/12/01 11:07:43;;;;;;;34.45;20.48;;;7.00;99.90;;;;;;4978785;28;20394;-67
2022/12/01 11:10:20;;;;;;;39.92;21.35;;;7.20;99.90;;;;;;4994576;28;20038;-67
2022/12/01 11:13:12;;;;;;;43.63;22.88;;;7.30;99.90;;;;;;4977976;28;20047;-66
2022/12/01 11:15:47;;;;;;;46.70;22.65;;;7.40;99.90;;;;;;4964652;28;20080;-67
2022/12/01 11:18:29;;;;;;;47.30;23.33;;;7.30;99.90;;;;;;4978005;28;20038;-68
2022/12/01 11:21:07;;;;;;;42.40;22.17;;;;;;;;;;4978262;28;20050;-66
2022/12/01 11:23:54;;;;;;;45.17;23.90;;;7.30;99.90;;;;;;4978291;28;20104;-66
2022/12/01 11:26:24;;;;;;;46.85;23.80;;;7.40;99.90;;;;;;4995692;28;20042;-66
2022/12/01 11:29:02;;;;;;;47.13;24.40;;;7.50;99.90;;;;;;4977929;28;20038;-67
2022/12/01 11:31:49;;;;;;;47.72;25.15;;;7.50;99.90;;;;;;4995452;28;20054;-67
2022/12/01 11:34:19;;;;;;;43.90;22.42;;;7.50;99.90;;;;;;4977808;28;20091;-67
2022/12/01 11:36:49;;;;;;;42.78;22.63;;;;;;;;;;4995214;28;20046;-67
2022/12/01 11:39:24;;;;;;;46.47;24.00;;;;;;;;;;4978151;28;20083;-67
2022/12/01 11:41:55;;;;;;;41.92;22.00;;;7.50;99.90;;;;;;4995153;28;20042;-67
2022/12/01 11:44:20;;;;;;;45.88;22.52;;;7.70;99.90;;;;;;4995390;28;20097;-67
2022/12/01 11:46:47;;;;;;;39.95;23.50;;;7.80;99.90;;;;;;4977703;28;20046;-67
2022/12/01 11:49:19;;;;;;;41.85;23.63;;;7.60;99.90;;;;;;4977714;28;20366;-67
2022/12/01 11:51:44;;;;;;;41.42;22.67;;;7.50;99.90;;;;;;4977829;28;20146;-67
2022/12/01 11:54:14;;;;;;;45.30;23.40;;;;;;;;;;4977469;28;20126;-66
2022/12/01 11:56:41;;;;;;;41.42;21.48;;;7.40;99.90;;;;;;4977958;28;20046;-67
2022/12/01 11:59:13;;;;;;;42.83;23.55;;;7.60;99.90;;;;;;4994087;28;20038;-66
2022/12/01 12:02:15;;;;;;;40.00;21.80;;;7.30;99.90;;;;;;4992152;28;20058;-67
2022/12/01 12:04:59;;;;;;;39.65;21.15;;;7.30;99.90;;;;;;4974737;28;20548;-67
2022/12/01 12:07:44;;;;;;;43.65;22.05;;;7.40;99.90;;;;;;4994975;28;20042;-67
2022/12/01 12:10:43;;;;;;;37.20;21.50;;;7.60;99.90;;;;;;4993437;28;20496;-67
2022/12/01 12:13:41;;;;;;;40.63;21.48;;;7.80;99.90;;;;;;4992369;28;20046;-66
2022/12/01 12:16:25;;;;;;;40.47;22.70;;;7.70;99.90;;;;;;4976970;28;20050;-66
2022/12/01 12:19:34;;;;;;;41.58;20.98;;;7.70;99.90;;;;;;4994513;28;20078;-67
2022/12/01 12:22:20;;;;;;;44.42;22.92;;;7.80;99.90;;;;;;4912225;29;20081;-67
2022/12/01 12:24:45;;;;;;;36.85;21.15;;;7.80;99.90;;;;;;4973138;28;20097;-67
2022/12/01 12:27:25;;;;;;;38.38;20.98;;;8.10;99.90;;;;;;4970959;28;20092;-67
2022/12/01 12:30:04;;;;;;;39.38;21.55;;;8.90;99.90;;;;;;4993938;28;20133;-67
2022/12/01 12:32:50;;;;;;;36.42;20.05;;;9.90;99.90;;;;;;4994169;28;20500;-67
2022/12/01 12:35:38;;;;;;;40.20;20.23;;;10.40;99.90;;;;;;4976573;28;20047;-67
2022/12/01 12:38:56;;;;;;;36.70;19.80;;;10.90;99.90;;;;;;4986853;28;20073;-67
2022/12/01 12:42:03;;;;;;;34.58;20.25;;;10.50;99.90;;;;;;4926724;29;20051;-67
2022/12/01 12:44:45;;;;;;;35.17;20.25;;;;;;;;;;4973079;28;20086;-67
2022/12/01 12:47:27;;;;;;;38.63;20.65;;;10.60;99.90;;;;;;4986511;28;20385;-66
2022/12/01 12:50:10;;;;;;;36.22;21.38;;;10.00;99.90;;;;;;4981495;28;20197;-67
2022/12/01 12:52:41;;;;;;;35.80;21.00;;;10.00;99.90;;;;;;4990908;28;20100;-66
2022/12/01 12:55:20;;;;;;;35.92;19.25;;;9.70;99.90;;;;;;4993989;28;20046;-67
2022/12/01 12:57:52;;;;;;;32.10;19.77;;;9.90;99.90;;;;;;4975712;28;20043;-66
2022/12/01 13:00:21;;;;;;;31.63;18.63;;;10.00;99.90;;;;;;4976623;28;20108;-67
2022/12/01 13:03:04;;;;;;;34.00;18.88;;;9.80;99.90;;;;;;4993591;28;20076;-66
2022/12/01 13:05:39;;;;;;;29.48;16.75;;;10.10;99.90;;;;;;4993815;28;20392;-68
2022/12/01 13:08:15;;;;;;;31.13;18.52;;;10.10;99.90;;;;;;4993862;28;20057;-66
2022/12/01 13:11:14;;;;;;;30.92;17.73;;;9.90;99.90;;;;;;4984520;28;20088;-67